createdAt,value
2018-11-12T00:01:27.970Z,12.00
2018-11-12T00:03:56.184Z,12.00
2018-11-12T00:06:24.321Z,12.10
2018-11-12T00:08:52.470Z,12.10
2018-11-12T00:11:20.641Z,12.10
2018-11-12T00:13:48.794Z,12.10
2018-11-12T00:16:17.149Z,12.10
2018-11-12T00:18:45.321Z,12.10
2018-11-12T00:21:13.457Z,12.20
2018-11-12T00:23:41.649Z,12.30
2018-11-12T00:26:09.852Z,12.30
2018-11-12T00:28:38.037Z,12.40
2018-11-12T00:31:06.213Z,12.40
2018-11-12T00:33:34.379Z,12.50
2018-11-12T00:36:02.520Z,12.50
2018-11-12T00:38:30.638Z,12.50
2018-11-12T00:40:58.769Z,12.50
2018-11-12T00:43:26.963Z,12.50
2018-11-12T00:45:55.125Z,12.50
2018-11-12T00:48:23.957Z,12.50
2018-11-12T00:50:52.241Z,12.50
2018-11-12T00:53:20.959Z,12.40
2018-11-12T00:55:49.129Z,12.40
2018-11-12T00:58:17.286Z,12.40
2018-11-12T01:00:45.459Z,12.40
2018-11-12T01:03:13.617Z,12.40
2018-11-12T01:05:41.802Z,12.40
2018-11-12T01:08:09.992Z,12.40
2018-11-12T01:10:38.113Z,12.40
2018-11-12T01:13:06.257Z,12.50
2018-11-12T01:15:34.369Z,12.60
2018-11-12T01:18:02.593Z,12.60
2018-11-12T01:20:30.725Z,12.70
2018-11-12T01:22:58.905Z,12.80
2018-11-12T01:25:27.150Z,12.80
2018-11-12T01:27:55.365Z,12.80
2018-11-12T01:30:23.565Z,12.80
2018-11-12T01:32:51.760Z,12.80
2018-11-12T01:35:19.899Z,12.80
2018-11-12T01:37:48.057Z,12.80
2018-11-12T01:40:16.747Z,12.80
2018-11-12T01:42:45.177Z,12.90
2018-11-12T01:45:16.797Z,12.90
2018-11-12T01:47:46.157Z,12.80
2018-11-12T01:50:14.764Z,12.90
2018-11-12T01:52:43.797Z,12.90
2018-11-12T01:55:13.157Z,12.90
2018-11-12T01:57:41.334Z,12.90
2018-11-12T02:00:13.494Z,12.90
2018-11-12T02:02:42.328Z,12.90
2018-11-12T02:05:10.970Z,12.90
2018-11-12T02:07:39.117Z,12.90
2018-11-12T02:10:08.963Z,12.90
2018-11-12T02:12:37.457Z,13.00
2018-11-12T02:15:12.113Z,13.00
2018-11-12T02:17:40.423Z,13.00
2018-11-12T02:20:10.396Z,13.10
2018-11-12T02:22:38.510Z,13.10
2018-11-12T02:25:07.801Z,13.10
2018-11-12T02:27:36.229Z,13.10
2018-11-12T02:30:06.678Z,13.10
2018-11-12T02:32:34.826Z,13.10
2018-11-12T02:35:04.946Z,13.10
2018-11-12T02:37:33.094Z,13.10
2018-11-12T02:40:01.311Z,13.10
2018-11-12T02:42:29.573Z,13.10
2018-11-12T02:44:57.729Z,13.10
2018-11-12T02:47:25.958Z,13.10
2018-11-12T02:49:54.108Z,13.20
2018-11-12T02:52:22.246Z,13.20
2018-11-12T02:54:50.445Z,13.20
2018-11-12T02:57:18.671Z,13.20
2018-11-12T02:59:46.813Z,13.20
2018-11-12T03:02:15.626Z,13.20
2018-11-12T03:04:43.783Z,13.20
2018-11-12T03:07:12.894Z,13.20
2018-11-12T03:09:41.050Z,13.20
2018-11-12T03:12:09.222Z,13.20
2018-11-12T03:14:38.202Z,13.20
2018-11-12T03:17:06.323Z,13.20
2018-11-12T03:19:34.584Z,13.20
2018-11-12T03:22:02.746Z,13.20
2018-11-12T03:24:30.947Z,13.20
2018-11-12T03:26:59.104Z,13.20
2018-11-12T03:29:27.279Z,13.20
2018-11-12T03:31:56.418Z,13.20
2018-11-12T03:34:24.589Z,13.30
2018-11-12T03:36:52.778Z,13.30
2018-11-12T03:39:20.958Z,13.30
2018-11-12T03:41:49.075Z,13.30
2018-11-12T03:44:17.249Z,13.30
2018-11-12T03:46:45.430Z,13.30
2018-11-12T03:49:13.848Z,13.40
2018-11-12T03:51:42.028Z,13.40
2018-11-12T03:54:10.233Z,13.40
2018-11-12T03:56:38.377Z,13.40
2018-11-12T03:59:06.606Z,13.40
2018-11-12T04:01:40.001Z,13.40
2018-11-12T04:04:08.212Z,13.40
2018-11-12T04:06:36.365Z,13.40
2018-11-12T04:09:06.864Z,13.40
2018-11-12T04:11:35.313Z,13.40
2018-11-12T04:14:03.497Z,13.40
2018-11-12T04:16:31.633Z,13.30
2018-11-12T04:18:59.817Z,13.30
2018-11-12T04:21:27.990Z,13.30
2018-11-12T04:23:56.197Z,13.30
2018-11-12T04:26:24.326Z,13.30
2018-11-12T04:28:52.451Z,13.30
2018-11-12T04:31:20.594Z,13.30
2018-11-12T04:33:48.759Z,13.30
2018-11-12T04:36:16.961Z,13.30
2018-11-12T04:38:45.123Z,13.30
2018-11-12T04:41:13.337Z,13.40
2018-11-12T04:43:41.506Z,13.50
2018-11-12T04:46:09.647Z,13.50
2018-11-12T04:48:37.841Z,13.50
2018-11-12T04:51:06.012Z,13.50
2018-11-12T04:53:34.250Z,13.60
2018-11-12T04:56:02.365Z,13.60
2018-11-12T04:58:30.537Z,13.60
2018-11-12T05:00:58.678Z,13.70
2018-11-12T05:03:26.797Z,13.70
2018-11-12T05:05:55.001Z,13.80
2018-11-12T05:08:23.192Z,13.80
2018-11-12T05:10:51.298Z,13.80
2018-11-12T05:13:19.448Z,13.80
2018-11-12T05:15:47.611Z,13.70
2018-11-12T05:18:15.842Z,13.70
2018-11-12T05:20:44.060Z,13.70
2018-11-12T05:23:12.215Z,13.70
2018-11-12T05:25:40.374Z,13.70
2018-11-12T05:28:08.555Z,13.70
2018-11-12T05:30:36.713Z,13.70
2018-11-12T05:33:05.069Z,13.60
2018-11-12T05:35:33.229Z,13.70
2018-11-12T05:38:01.389Z,13.60
2018-11-12T05:40:30.177Z,13.60
2018-11-12T05:42:58.674Z,13.60
2018-11-12T05:45:28.053Z,13.60
2018-11-12T05:47:56.323Z,13.50
2018-11-12T05:50:26.668Z,13.50
2018-11-12T05:52:56.265Z,13.60
2018-11-12T05:55:25.662Z,13.50
2018-11-12T05:57:53.830Z,13.60
2018-11-12T06:00:24.550Z,13.50
2018-11-12T06:02:52.709Z,13.60
2018-11-12T06:05:20.875Z,13.60
2018-11-12T06:07:49.037Z,13.60
2018-11-12T06:10:18.508Z,13.50
2018-11-12T06:12:46.869Z,13.50
2018-11-12T06:15:15.245Z,13.50
2018-11-12T06:17:44.137Z,13.50
2018-11-12T06:20:14.677Z,13.50
2018-11-12T06:22:42.995Z,13.50
2018-11-12T06:25:12.346Z,13.50
2018-11-12T06:27:40.518Z,13.50
2018-11-12T06:30:13.301Z,13.50
2018-11-12T06:32:41.554Z,13.40
2018-11-12T06:35:10.825Z,13.40
2018-11-12T06:37:39.034Z,13.40
2018-11-12T06:40:08.917Z,13.40
2018-11-12T06:42:37.926Z,13.40
2018-11-12T06:45:08.593Z,13.40
2018-11-12T06:47:36.841Z,13.40
2018-11-12T06:50:07.182Z,13.40
2018-11-12T06:52:35.349Z,13.40
2018-11-12T06:55:08.193Z,13.40
2018-11-12T06:57:36.509Z,13.50
2018-11-12T07:00:07.145Z,13.50
2018-11-12T07:02:36.986Z,13.50
2018-11-12T07:05:06.873Z,13.60
2018-11-12T07:07:35.045Z,13.50
2018-11-12T07:10:03.494Z,13.60
2018-11-12T07:12:31.614Z,13.60
2018-11-12T07:14:59.797Z,13.60
2018-11-12T07:17:27.921Z,13.60
2018-11-12T07:19:56.093Z,13.60
2018-11-12T07:22:24.255Z,13.60
2018-11-12T07:24:52.577Z,13.60
2018-11-12T07:27:20.840Z,13.70
2018-11-12T07:29:49.320Z,13.60
2018-11-12T07:32:17.585Z,13.60
2018-11-12T07:34:45.760Z,13.70
2018-11-12T07:37:13.946Z,13.70
2018-11-12T07:39:42.109Z,13.80
2018-11-12T07:42:10.434Z,13.80
2018-11-12T07:44:38.753Z,13.80
2018-11-12T07:47:07.085Z,13.80
2018-11-12T07:49:36.086Z,13.80
2018-11-12T07:52:04.719Z,13.80
2018-11-12T07:54:33.217Z,13.90
2018-11-12T07:57:01.438Z,14.00
2018-11-12T07:59:29.765Z,14.00
2018-11-12T08:01:57.962Z,14.00
2018-11-12T08:04:26.117Z,14.00
2018-11-12T08:06:54.282Z,14.00
2018-11-12T08:09:22.472Z,14.10
2018-11-12T08:11:50.606Z,14.10
2018-11-12T08:14:19.001Z,14.10
2018-11-12T08:16:47.351Z,14.20
2018-11-12T08:19:15.462Z,14.20
2018-11-12T08:21:43.706Z,14.20
2018-11-12T08:24:11.918Z,14.20
2018-11-12T08:26:40.186Z,14.40
2018-11-12T08:29:08.326Z,14.40
2018-11-12T08:31:36.513Z,14.40
2018-11-12T08:34:04.910Z,14.30
2018-11-12T08:36:33.136Z,14.40
2018-11-12T08:39:01.257Z,14.40
2018-11-12T08:41:29.572Z,14.40
2018-11-12T08:43:57.770Z,14.40
2018-11-12T08:46:25.893Z,14.40
2018-11-12T08:48:54.101Z,14.40
2018-11-12T08:51:22.241Z,14.40
2018-11-12T08:53:50.486Z,14.40
2018-11-12T08:56:18.604Z,14.40
2018-11-12T08:58:46.983Z,14.40
2018-11-12T09:01:15.129Z,14.40
2018-11-12T09:03:43.439Z,14.40
2018-11-12T09:06:11.621Z,14.40
2018-11-12T09:08:39.819Z,14.40
2018-11-12T09:11:08.007Z,14.40
2018-11-12T09:13:36.255Z,14.40
2018-11-12T09:16:04.660Z,14.40
2018-11-12T09:18:32.822Z,14.40
2018-11-12T09:21:00.937Z,14.40
2018-11-12T09:23:29.140Z,14.50
2018-11-12T09:25:57.321Z,14.50
2018-11-12T09:28:25.496Z,14.50
2018-11-12T09:30:55.113Z,14.50
2018-11-12T09:33:21.839Z,14.60
2018-11-12T09:35:49.961Z,14.60
2018-11-12T09:38:18.163Z,14.60
2018-11-12T09:40:46.576Z,14.60
2018-11-12T09:43:15.103Z,14.70
2018-11-12T09:45:43.289Z,14.80
2018-11-12T09:48:11.466Z,14.80
2018-11-12T09:50:39.606Z,14.80
2018-11-12T09:53:07.765Z,14.90
2018-11-12T09:55:35.961Z,14.90
2018-11-12T09:58:05.374Z,14.80
2018-11-12T10:00:33.942Z,14.90
2018-11-12T10:03:03.076Z,14.90
2018-11-12T10:05:31.523Z,14.90
2018-11-12T10:08:02.163Z,14.90
2018-11-12T10:10:40.320Z,14.90
2018-11-12T10:13:10.179Z,14.90
2018-11-12T10:15:39.259Z,15.00
2018-11-12T10:18:07.356Z,15.00
2018-11-12T10:20:32.928Z,15.10
2018-11-12T10:23:01.050Z,15.10
2018-11-12T10:25:29.201Z,15.00
2018-11-12T10:27:57.369Z,15.00
2018-11-12T10:30:25.519Z,15.00
2018-11-12T10:32:53.693Z,15.00
2018-11-12T10:35:21.880Z,15.10
2018-11-12T10:37:50.046Z,15.00
2018-11-12T10:40:22.310Z,15.00
2018-11-12T10:42:50.495Z,15.00
2018-11-12T10:45:18.876Z,15.10
2018-11-12T10:47:48.057Z,15.00
2018-11-12T10:50:16.236Z,15.10
2018-11-12T10:52:44.398Z,15.10
2018-11-12T10:55:14.429Z,15.10
2018-11-12T10:57:43.199Z,15.00
2018-11-12T11:00:18.503Z,15.10
2018-11-12T11:02:52.070Z,15.10
2018-11-12T11:05:20.365Z,15.10
2018-11-12T11:07:49.205Z,15.20
2018-11-12T11:10:17.429Z,15.10
2018-11-12T11:12:46.389Z,15.10
2018-11-12T11:15:15.471Z,15.10
2018-11-12T11:17:43.807Z,15.20
2018-11-12T11:20:12.189Z,15.10
2018-11-12T11:22:40.498Z,15.20
2018-11-12T11:25:08.678Z,15.20
2018-11-12T11:27:37.238Z,15.20
2018-11-12T11:30:08.793Z,15.10
2018-11-12T11:32:36.994Z,15.20
2018-11-12T11:35:06.130Z,15.10
2018-11-12T11:37:34.297Z,15.10
2018-11-12T11:40:02.573Z,15.10
2018-11-12T11:42:30.709Z,15.10
2018-11-12T11:44:58.865Z,15.20
2018-11-12T11:47:27.122Z,15.20
2018-11-12T11:49:55.260Z,15.20
2018-11-12T11:52:23.393Z,15.20
2018-11-12T11:54:51.633Z,15.10
2018-11-12T11:57:19.989Z,15.20
2018-11-12T11:59:48.098Z,15.10
2018-11-12T12:02:16.324Z,15.10
2018-11-12T12:04:44.355Z,15.10
2018-11-12T12:07:12.549Z,15.10
2018-11-12T12:09:40.725Z,15.10
2018-11-12T12:12:08.921Z,15.10
2018-11-12T12:14:37.120Z,15.20
2018-11-12T12:17:05.498Z,15.20
2018-11-12T12:19:33.685Z,15.20
2018-11-12T12:22:01.874Z,15.20
2018-11-12T12:24:30.104Z,15.20
2018-11-12T12:26:58.505Z,15.20
2018-11-12T12:29:26.764Z,15.20
2018-11-12T12:31:54.901Z,15.20
2018-11-12T12:34:23.079Z,15.20
2018-11-12T12:36:51.449Z,15.20
2018-11-12T12:39:19.571Z,15.20
2018-11-12T12:41:47.884Z,15.30
2018-11-12T12:44:16.133Z,15.30
2018-11-12T12:46:44.237Z,15.40
2018-11-12T12:49:12.373Z,15.60
2018-11-12T12:51:40.573Z,15.80
2018-11-12T12:54:08.673Z,15.90
2018-11-12T12:56:37.155Z,15.90
2018-11-12T12:59:07.060Z,15.80
2018-11-12T13:01:36.856Z,15.80
2018-11-12T13:04:05.307Z,15.80
2018-11-12T13:06:35.857Z,15.80
2018-11-12T13:09:08.782Z,16.10
2018-11-12T13:11:37.836Z,16.50
2018-11-12T13:14:06.857Z,16.60
2018-11-12T13:16:35.023Z,16.60
2018-11-12T13:19:05.143Z,16.60
2018-11-12T13:21:33.771Z,16.60
2018-11-12T13:24:01.966Z,16.50
2018-11-12T13:26:30.394Z,16.60
2018-11-12T13:29:00.842Z,17.00
2018-11-12T13:31:29.018Z,17.70
2018-11-12T13:33:57.196Z,17.90
2018-11-12T13:36:25.342Z,18.10
2018-11-12T13:38:53.544Z,18.20
2018-11-12T13:41:21.723Z,18.20
2018-11-12T13:43:49.967Z,18.00
2018-11-12T13:46:18.143Z,17.80
2018-11-12T13:48:46.541Z,17.70
2018-11-12T13:51:14.874Z,17.80
2018-11-12T13:53:42.990Z,17.80
2018-11-12T13:56:11.138Z,17.80
2018-11-12T13:58:39.314Z,17.80
2018-11-12T14:01:07.441Z,17.70
2018-11-12T14:03:36.812Z,17.70
2018-11-12T14:06:07.973Z,17.80
2018-11-12T14:08:38.789Z,17.80
2018-11-12T14:11:09.454Z,17.60
2018-11-12T14:13:42.030Z,17.60
2018-11-12T14:16:12.616Z,17.60
2018-11-12T14:18:43.291Z,17.60
2018-11-12T14:21:14.525Z,17.70
2018-11-12T14:23:43.932Z,17.70
2018-11-12T14:26:12.310Z,17.70
2018-11-12T14:28:42.370Z,17.70
2018-11-12T14:31:11.902Z,17.70
2018-11-12T14:33:41.290Z,17.70
2018-11-12T14:36:09.863Z,17.80
2018-11-12T14:38:38.947Z,17.80
2018-11-12T14:41:08.613Z,17.70
2018-11-12T14:43:36.817Z,17.70
2018-11-12T14:46:06.817Z,17.60
2018-11-12T14:48:36.014Z,17.70
2018-11-12T14:51:05.094Z,17.70
2018-11-12T14:53:34.640Z,17.70
2018-11-12T14:56:02.851Z,17.70
2018-11-12T14:58:30.998Z,17.60
2018-11-12T15:00:59.165Z,17.70
2018-11-12T15:03:27.337Z,17.70
2018-11-12T15:05:55.765Z,17.80
2018-11-12T15:08:23.885Z,17.70
2018-11-12T15:10:52.035Z,17.60
2018-11-12T15:13:20.166Z,17.60
2018-11-12T15:15:48.337Z,17.60
2018-11-12T15:18:16.508Z,17.50
2018-11-12T15:20:44.657Z,17.40
2018-11-12T15:23:13.002Z,17.30
2018-11-12T15:25:41.339Z,17.20
2018-11-12T15:28:09.517Z,17.20
2018-11-12T15:30:37.709Z,17.10
2018-11-12T15:33:05.881Z,17.10
2018-11-12T15:35:34.011Z,16.90
2018-11-12T15:38:02.178Z,16.80
2018-11-12T15:40:30.341Z,16.80
2018-11-12T15:42:58.499Z,16.70
2018-11-12T15:45:26.632Z,16.60
2018-11-12T15:47:54.814Z,16.60
2018-11-12T15:50:28.519Z,16.50
2018-11-12T15:52:56.709Z,16.50
2018-11-12T15:55:25.005Z,16.40
2018-11-12T15:57:53.294Z,16.40
2018-11-12T16:00:21.329Z,16.30
2018-11-12T16:02:49.617Z,16.30
2018-11-12T16:05:17.777Z,16.30
2018-11-12T16:07:45.901Z,16.20
2018-11-12T16:10:16.165Z,16.10
2018-11-12T16:12:44.436Z,16.10
2018-11-12T16:15:13.671Z,16.00
2018-11-12T16:17:42.226Z,15.90
2018-11-12T16:20:14.498Z,16.00
2018-11-12T16:22:43.113Z,15.80
2018-11-12T16:25:11.289Z,15.80
2018-11-12T16:27:39.605Z,15.70
2018-11-12T16:30:08.806Z,15.70
2018-11-12T16:32:37.336Z,15.70
2018-11-12T16:35:06.869Z,15.70
2018-11-12T16:37:35.100Z,15.70
2018-11-12T16:40:03.489Z,15.70
2018-11-12T16:42:31.655Z,15.70
2018-11-12T16:44:59.859Z,15.70
2018-11-12T16:47:28.022Z,15.70
2018-11-12T16:49:56.395Z,15.80
2018-11-12T16:52:24.495Z,15.80
2018-11-12T16:54:52.633Z,15.80
2018-11-12T16:57:20.882Z,15.70
2018-11-12T16:59:49.057Z,15.60
2018-11-12T17:02:17.314Z,15.60
2018-11-12T17:04:45.505Z,15.50
2018-11-12T17:07:13.954Z,15.50
2018-11-12T17:09:42.172Z,15.50
2018-11-12T17:12:10.519Z,15.50
2018-11-12T17:14:38.678Z,15.50
2018-11-12T17:17:07.106Z,15.50
2018-11-12T17:19:35.302Z,15.50
2018-11-12T17:22:03.635Z,15.50
2018-11-12T17:24:31.777Z,15.50
2018-11-12T17:26:59.917Z,15.40
2018-11-12T17:29:28.070Z,15.50
2018-11-12T17:31:56.249Z,15.40
2018-11-12T17:34:24.414Z,15.40
2018-11-12T17:36:52.597Z,15.50
2018-11-12T17:39:20.777Z,15.50
2018-11-12T17:41:48.982Z,15.60
2018-11-12T17:44:17.162Z,15.70
2018-11-12T17:46:45.351Z,15.90
2018-11-12T17:49:13.534Z,16.00
2018-11-12T17:51:41.749Z,16.20
2018-11-12T17:54:09.951Z,16.30
2018-11-12T17:56:38.050Z,16.50
2018-11-12T17:59:06.722Z,16.60
2018-11-12T18:01:35.226Z,16.70
2018-11-12T18:04:03.296Z,16.70
2018-11-12T18:06:31.676Z,16.80
2018-11-12T18:08:59.818Z,16.90
2018-11-12T18:11:27.981Z,16.90
2018-11-12T18:13:56.132Z,16.70
2018-11-12T18:16:24.270Z,16.50
2018-11-12T18:18:52.461Z,16.30
2018-11-12T18:21:20.622Z,16.20
2018-11-12T18:23:48.785Z,16.20
2018-11-12T18:26:16.965Z,16.10
2018-11-12T18:28:45.154Z,16.20
2018-11-12T18:31:13.564Z,16.10
2018-11-12T18:33:41.556Z,16.10
2018-11-12T18:36:09.851Z,16.10
2018-11-12T18:38:38.022Z,16.10
2018-11-12T18:41:06.490Z,16.00
2018-11-12T18:43:36.175Z,15.80
2018-11-12T18:46:04.838Z,15.80
2018-11-12T18:48:34.698Z,15.80
2018-11-12T18:51:03.096Z,15.80
2018-11-12T18:53:31.584Z,15.80
2018-11-12T18:56:00.077Z,15.80
2018-11-12T18:58:29.635Z,15.80
2018-11-12T19:00:58.349Z,15.70
2018-11-12T19:03:26.950Z,15.70
2018-11-12T19:05:55.444Z,15.70
2018-11-12T19:08:23.862Z,15.70
2018-11-12T19:10:52.712Z,15.70
2018-11-12T19:13:21.409Z,15.70
2018-11-12T19:15:50.200Z,15.70
2018-11-12T19:18:18.579Z,15.80
2018-11-12T19:20:46.767Z,15.90
2018-11-12T19:23:14.969Z,15.90
2018-11-12T19:25:43.133Z,15.90
2018-11-12T19:28:11.333Z,15.90
2018-11-12T19:30:39.538Z,15.90
2018-11-12T19:33:07.686Z,15.90
2018-11-12T19:35:35.861Z,16.00
2018-11-12T19:38:04.071Z,16.00
2018-11-12T19:40:34.027Z,16.00
2018-11-12T19:43:02.141Z,16.00
2018-11-12T19:45:30.497Z,16.00
2018-11-12T19:47:58.657Z,16.00
2018-11-12T19:50:28.018Z,15.90
2018-11-12T19:52:57.217Z,15.90
2018-11-12T19:55:25.409Z,15.80
2018-11-12T19:57:53.577Z,15.80
2018-11-12T20:00:23.106Z,15.80
2018-11-12T20:02:52.477Z,15.70
2018-11-12T20:05:20.677Z,15.70
2018-11-12T20:07:48.809Z,15.60
2018-11-12T20:10:18.240Z,15.60
2018-11-12T20:12:46.507Z,15.70
2018-11-12T20:15:19.005Z,15.70
2018-11-12T20:17:48.184Z,15.80
2018-11-12T20:20:22.057Z,15.70
2018-11-12T20:22:50.677Z,15.80
2018-11-12T20:25:19.508Z,15.70
2018-11-12T20:27:48.236Z,15.70
2018-11-12T20:30:20.700Z,15.70
2018-11-12T20:32:48.865Z,15.70
2018-11-12T20:35:17.061Z,15.70
2018-11-12T20:37:45.243Z,15.80
2018-11-12T20:40:14.324Z,15.80
2018-11-12T20:42:43.405Z,15.80
2018-11-12T20:45:13.084Z,15.90
2018-11-12T20:47:41.793Z,16.00
2018-11-12T20:50:12.149Z,16.00
2018-11-12T20:52:40.491Z,16.00
2018-11-12T20:55:09.513Z,15.90
2018-11-12T20:57:38.520Z,15.80
2018-11-12T21:00:11.361Z,15.80
2018-11-12T21:02:40.252Z,15.80
2018-11-12T21:05:08.877Z,15.80
2018-11-12T21:07:37.330Z,15.80
2018-11-12T21:10:06.402Z,15.80
2018-11-12T21:12:34.545Z,15.80
2018-11-12T21:15:02.727Z,15.80
2018-11-12T21:17:31.110Z,15.80
2018-11-12T21:19:59.325Z,15.80
2018-11-12T21:22:27.497Z,15.80
2018-11-12T21:24:55.895Z,15.80
2018-11-12T21:27:24.066Z,15.80
2018-11-12T21:29:52.989Z,15.80
2018-11-12T21:32:21.185Z,15.80
2018-11-12T21:34:50.061Z,15.80
2018-11-12T21:37:18.322Z,15.80
2018-11-12T21:39:46.467Z,15.70
2018-11-12T21:42:14.901Z,15.70
2018-11-12T21:44:43.105Z,15.70
2018-11-12T21:47:11.285Z,15.70
2018-11-12T21:49:39.445Z,15.60
2018-11-12T21:52:07.598Z,15.60
2018-11-12T21:54:35.811Z,15.50
2018-11-12T21:57:03.969Z,15.50
2018-11-12T21:59:32.177Z,15.50
2018-11-12T22:02:00.314Z,15.50
2018-11-12T22:04:28.499Z,15.50
2018-11-12T22:06:56.677Z,15.50
2018-11-12T22:09:24.845Z,15.40
2018-11-12T22:11:52.997Z,15.40
2018-11-12T22:14:21.149Z,15.40
2018-11-12T22:16:49.370Z,15.30
2018-11-12T22:19:18.450Z,15.30
2018-11-12T22:21:46.608Z,15.40
2018-11-12T22:24:14.738Z,15.40
2018-11-12T22:26:42.937Z,15.40
2018-11-12T22:29:11.145Z,15.40
2018-11-12T22:31:39.270Z,15.40
2018-11-12T22:34:07.422Z,15.30
2018-11-12T22:36:35.710Z,15.30
2018-11-12T22:39:05.489Z,15.30
2018-11-12T22:41:33.653Z,15.30
2018-11-12T22:44:01.825Z,15.20
2018-11-12T22:46:30.237Z,15.20
2018-11-12T22:48:58.377Z,15.20
2018-11-12T22:51:26.529Z,15.20
2018-11-12T22:53:54.680Z,15.20
2018-11-12T22:56:22.829Z,15.20
2018-11-12T22:58:51.025Z,15.20
2018-11-12T23:01:19.202Z,15.20
2018-11-12T23:03:47.368Z,15.20
2018-11-12T23:06:15.551Z,15.20
2018-11-12T23:08:44.131Z,15.30
2018-11-12T23:11:12.302Z,15.40
2018-11-12T23:13:40.465Z,15.50
2018-11-12T23:16:08.605Z,15.50
2018-11-12T23:18:36.765Z,15.50
2018-11-12T23:21:05.076Z,15.60
2018-11-12T23:23:33.230Z,15.60
2018-11-12T23:26:01.370Z,15.60
2018-11-12T23:28:29.561Z,15.60
2018-11-12T23:30:57.750Z,15.50
2018-11-12T23:33:25.935Z,15.40
2018-11-12T23:35:54.133Z,15.30
2018-11-12T23:38:22.321Z,15.30
2018-11-12T23:40:50.608Z,15.10
2018-11-12T23:43:18.764Z,15.10
2018-11-12T23:45:46.949Z,15.00
2018-11-12T23:48:15.123Z,15.00
2018-11-12T23:50:43.304Z,15.00
2018-11-12T23:53:11.449Z,15.00
2018-11-12T23:55:39.638Z,15.00
2018-11-12T23:58:07.870Z,15.00
